General Aviation Weather

Text Reports

Enter one or more of the following location identifiers separated by a space:

Zip Code, Four-Character ICAO or Three-Character IATA airport codes.

METAR - Aviation Routine Weather Report
KOEO - Osceola, Wisconsin
Updated at 8:15 AM GMT on April 21, 2014 (3:15 AM CDT):
METAR KOEO 210815Z AUTO 13003KT 10SM SCT120 11/08 A2994 RMK AO2 T01120080
TAF - Terminal Area Forecast
KOEO - Osceola, Wisconsin
Updated at 8:15 AM GMT on April 21, 2014 (3:15 AM CDT):
No TAF is currently available for this location.
Decoded:
No decoded TAF is available.
PIREP - Pilot Weather Report
KOEO - Osceola, Wisconsin
Updated at 8:15 AM GMT on April 21, 2014 (3:15 AM CDT):
No PIREP is currently available for this location.
AIRMET - Airmens Meteorological Information
KOEO - Osceola, Wisconsin
Updated at 8:15 AM GMT on April 21, 2014 (3:15 AM CDT):
No AIRMET is currently available for this location.
SIGMET - Significant Meteorological Information
KOEO - Osceola, Wisconsin
Updated at 8:15 AM GMT on April 21, 2014 (3:15 AM CDT):
No SIGMET is currently available for this location.
NOTAM - Notice to Airmen
KOEO - Osceola, Wisconsin
Updated at 8:15 AM GMT on April 21, 2014 (3:15 AM CDT):
No NOTAM is currently available for this location.
Forecast Area
KOEO - Osceola, Wisconsin
Updated at 8:15 AM GMT on April 21, 2014 (3:15 AM CDT):
No NOTAM is currently available for this location.
Aviation Weather Maps